LBWNLBBG

Guest
Details From LBWN - Varna Airport
To LBBG - Burgas
Flight Number -
Tags decoded
Created
Modified
Stats Distance 66 nm / 122 km
Max Altitude 0 ft / 0 m
Waypoints 5
Social Downloads 3
Likes 0
Share VATSIM

Download

Looking for another format? Having issues loading an existing format? Contact us
Advertisement - Login to hide

Notes

Requested: LBWN EMPED TUGSO GIGPU LBBG

Route

LBWN EMPED TUGSO GIGPU LBBG

ID Type Via Altitude (ft/m) Position (lat/lon) Dist (leg/tot) Name
O LBWN APT - 0 / 0 43.23200 / 27.82530 - / 0 nm Varna Airport
EMPED FIX - 0 / 0 43.26220 / 27.47780 15 / 15 nm
TUGSO FIX - 0 / 0 42.93720 / 27.58140 20 / 35 nm
GIGPU FIX - 0 / 0 42.77220 / 27.78420 13 / 48 nm
O LBBG APT - 0 / 0 42.57010 / 27.51530 16 / 65 nm Burgas

Altitude Profile

Advertisement - Login to hide

LBWN

Details ICAO LBWN (VAR)
Name Varna Airport
Region Bulgaria
Timezone Europe/Sofia (UTC+2.0)
Stats Elevation 229 ft / 70 m (AMSL)
Location 43.232000° 27.825300°
Runways 1
Magnetic Variation 5.884° E

METAR

LBWN 281630Z 10008KT CAVOK 09/01 Q1009 NOSIG

Decode

TAF

TAF LBWN 281100Z 2812/2912 34012KT 9999 SCT045 BECMG 2812/2814 04010KT BECMG 2818/2820 VRB04KT BKN040 BECMG 2902/2904 34012KT

Decode

Departure Runways

ID Width Length Bearing (true/mag) Surface Threshold Overrun Markings Lighting
09 148 ft / 45 m 8,443 ft / 2,573 m 96.95° / 91.06° ASPHALT 98 ft / 30 m 0 ft / 0 m PREC-APP CENTERLINE EDGE THRESHOLD REIL-OMNI
27 148 ft / 45 m 8,443 ft / 2,573 m 276.97° / 271.09° ASPHALT 112 ft / 34 m 0 ft / 0 m PREC-APP CENTERLINE EDGE THRESHOLD REIL-OMNI

LBBG

Details ICAO LBBG (BOJ)
Name Burgas
Region Bulgaria
Timezone Europe/Sofia (UTC+2.0)
Stats Elevation 134 ft / 41 m (AMSL)
Location 42.570100° 27.515300°
Runways 1
Magnetic Variation 5.738° E

METAR

LBBG 281630Z 06006KT CAVOK 12/03 Q1009 NOSIG

Decode

TAF

TAF LBBG 281100Z 2812/2912 04010KT 9999 SCT040 BECMG 2812/2814 11010KT BECMG 2818/2820 VRB04KT BKN030 BECMG 2902/2904 34012KT

Decode

Destination Runways

ID Width Length Bearing (true/mag) Surface Threshold Overrun Markings Lighting
04 148 ft / 45 m 10,509 ft / 3,203 m 44.26° / 38.52° CONCRETE 0 ft / 0 m 0 ft / 0 m PREC-APP CENTERLINE EDGE THRESHOLD ALSF-I
22 148 ft / 45 m 10,509 ft / 3,203 m 224.28° / 218.54° CONCRETE 0 ft / 0 m 0 ft / 0 m PREC-APP CENTERLINE EDGE THRESHOLD ALSF-II TDZ

Approach Navaids

Runway Type Ident Frequency Range Bearing (true/mag) Slope Elevation
22 MM MM - - 224.28° / 218.55 ° - 135 ft / 41 m (AMSL)
22 OM OM - - 224.28° / 218.55 ° - 135 ft / 41 m (AMSL)
22 LOC-ILS IBG 110.30 MHz 18 nm / 33 km 224.27° / 218.53 ° - 134 ft / 41 m (AMSL)
22 GS IBG 110.30 MHz 10 nm / 19 km 224.27° / 218.53 ° 3.00° 134 ft / 41 m (AMSL)

Popular Alternatives